Cleveland, Missouri
Current Conditions -  °F | °C
As of 11:53 PM on Friday 24 Oct 2014 (Local Time) from KOJC Reporting Station
Clear Clear  
Wind Chill: 62°   Ceiling: Unl
Heat Index: 62°   Visibility: 8mi
Dew Point: 61°   Wind: 6mph
Humidity: 96%   Direction: 210°SSW
Pressure: 30"   Gusts: NA
Location:  38.68°N, 94.59°W
Report Text: KOJC 250453Z AUTO 21005KT 8SM CLR 17/16 A3000 RMK AO2 SLP152 T01670161
Loading
Personal Weather Stations






























Interactive Weather Map
Tropical Storm Tracking
New forecast layout! Learn more

10-Day Weather Forecast

Advertisements
Track Severe Weather on mobile